sensor_id;sensor_type;location;lat;lon;timestamp;P1;durP1;ratioP1;P2;durP2;ratioP2
41253;SDS011;26987;59.928;30.306;2023-11-19T00:01:12;4.93;;;2.20;;
41253;SDS011;26987;59.928;30.306;2023-11-19T00:03:42;7.30;;;2.20;;
41253;SDS011;26987;59.928;30.306;2023-11-19T00:06:10;4.18;;;2.05;;
41253;SDS011;26987;59.928;30.306;2023-11-19T00:08:38;3.83;;;2.15;;
41253;SDS011;26987;59.928;30.306;2023-11-19T00:11:06;4.72;;;1.73;;
41253;SDS011;26987;59.928;30.306;2023-11-19T00:13:34;3.50;;;1.50;;
41253;SDS011;26987;59.928;30.306;2023-11-19T00:16:02;6.40;;;1.98;;
41253;SDS011;26987;59.928;30.306;2023-11-19T00:18:31;3.70;;;1.70;;
41253;SDS011;26987;59.928;30.306;2023-11-19T00:21:00;4.35;;;1.20;;
41253;SDS011;26987;59.928;30.306;2023-11-19T00:23:28;8.95;;;1.92;;
41253;SDS011;26987;59.928;30.306;2023-11-19T00:25:56;4.90;;;1.40;;
41253;SDS011;26987;59.928;30.306;2023-11-19T00:28:24;6.00;;;1.70;;
41253;SDS011;26987;59.928;30.306;2023-11-19T00:30:52;3.90;;;1.80;;
41253;SDS011;26987;59.928;30.306;2023-11-19T00:33:20;8.45;;;1.92;;
41253;SDS011;26987;59.928;30.306;2023-11-19T00:35:48;5.97;;;1.77;;
41253;SDS011;26987;59.928;30.306;2023-11-19T00:38:17;3.45;;;2.13;;
41253;SDS011;26987;59.928;30.306;2023-11-19T00:40:45;5.20;;;1.70;;
41253;SDS011;26987;59.928;30.306;2023-11-19T00:43:13;3.90;;;1.67;;
41253;SDS011;26987;59.928;30.306;2023-11-19T00:45:42;4.28;;;1.60;;
41253;SDS011;26987;59.928;30.306;2023-11-19T00:48:10;4.15;;;1.77;;
41253;SDS011;26987;59.928;30.306;2023-11-19T00:50:39;9.32;;;2.25;;
41253;SDS011;26987;59.928;30.306;2023-11-19T00:53:10;3.80;;;1.60;;
41253;SDS011;26987;59.928;30.306;2023-11-19T00:55:39;4.18;;;1.40;;
41253;SDS011;26987;59.928;30.306;2023-11-19T00:58:07;6.60;;;1.50;;
41253;SDS011;26987;59.928;30.306;2023-11-19T01:00:35;5.65;;;1.58;;
41253;SDS011;26987;59.928;30.306;2023-11-19T01:03:03;3.70;;;1.30;;
41253;SDS011;26987;59.928;30.306;2023-11-19T01:05:33;4.22;;;1.20;;
41253;SDS011;26987;59.928;30.306;2023-11-19T01:08:01;5.22;;;1.67;;
41253;SDS011;26987;59.928;30.306;2023-11-19T01:10:30;4.72;;;1.00;;
41253;SDS011;26987;59.928;30.306;2023-11-19T01:13:01;6.28;;;1.45;;
41253;SDS011;26987;59.928;30.306;2023-11-19T01:15:31;3.25;;;1.50;;
41253;SDS011;26987;59.928;30.306;2023-11-19T01:17:59;4.95;;;1.70;;
41253;SDS011;26987;59.928;30.306;2023-11-19T01:20:28;4.70;;;1.50;;
41253;SDS011;26987;59.928;30.306;2023-11-19T01:22:56;4.38;;;1.45;;
41253;SDS011;26987;59.928;30.306;2023-11-19T01:25:24;5.95;;;1.77;;
41253;SDS011;26987;59.928;30.306;2023-11-19T01:27:52;3.35;;;1.50;;
41253;SDS011;26987;59.928;30.306;2023-11-19T01:30:21;3.88;;;1.50;;
41253;SDS011;26987;59.928;30.306;2023-11-19T01:32:49;3.30;;;1.60;;
41253;SDS011;26987;59.928;30.306;2023-11-19T01:35:17;6.70;;;1.95;;
41253;SDS011;26987;59.928;30.306;2023-11-19T01:37:45;4.55;;;1.85;;
41253;SDS011;26987;59.928;30.306;2023-11-19T01:40:13;3.65;;;1.60;;
41253;SDS011;26987;59.928;30.306;2023-11-19T01:42:42;4.80;;;1.67;;
41253;SDS011;26987;59.928;30.306;2023-11-19T01:45:10;5.78;;;1.60;;
41253;SDS011;26987;59.928;30.306;2023-11-19T01:47:56;3.03;;;1.58;;
41253;SDS011;26987;59.928;30.306;2023-11-19T01:50:25;7.13;;;2.38;;
41253;SDS011;26987;59.928;30.306;2023-11-19T01:52:55;3.88;;;1.58;;
41253;SDS011;26987;59.928;30.306;2023-11-19T01:55:24;3.75;;;1.90;;
41253;SDS011;26987;59.928;30.306;2023-11-19T01:57:54;3.70;;;1.52;;
41253;SDS011;26987;59.928;30.306;2023-11-19T02:00:27;4.32;;;1.65;;
41253;SDS011;26987;59.928;30.306;2023-11-19T02:02:55;3.85;;;1.23;;
41253;SDS011;26987;59.928;30.306;2023-11-19T02:05:24;3.55;;;1.33;;
41253;SDS011;26987;59.928;30.306;2023-11-19T02:07:52;2.63;;;1.42;;
41253;SDS011;26987;59.928;30.306;2023-11-19T02:10:20;3.38;;;1.50;;
41253;SDS011;26987;59.928;30.306;2023-11-19T02:12:51;5.70;;;1.95;;
41253;SDS011;26987;59.928;30.306;2023-11-19T02:15:19;4.25;;;1.77;;
41253;SDS011;26987;59.928;30.306;2023-11-19T02:17:51;4.65;;;2.15;;
41253;SDS011;26987;59.928;30.306;2023-11-19T02:20:19;4.78;;;1.55;;
41253;SDS011;26987;59.928;30.306;2023-11-19T02:22:47;4.68;;;1.77;;
41253;SDS011;26987;59.928;30.306;2023-11-19T02:25:17;3.85;;;1.85;;
41253;SDS011;26987;59.928;30.306;2023-11-19T02:27:53;4.47;;;2.17;;
41253;SDS011;26987;59.928;30.306;2023-11-19T02:30:22;3.47;;;2.08;;
41253;SDS011;26987;59.928;30.306;2023-11-19T02:32:52;6.43;;;1.70;;
41253;SDS011;26987;59.928;30.306;2023-11-19T02:35:23;6.63;;;2.28;;
41253;SDS011;26987;59.928;30.306;2023-11-19T02:37:52;8.63;;;2.55;;
41253;SDS011;26987;59.928;30.306;2023-11-19T02:40:20;10.82;;;3.75;;
41253;SDS011;26987;59.928;30.306;2023-11-19T02:42:48;11.32;;;2.97;;
41253;SDS011;26987;59.928;30.306;2023-11-19T02:45:18;12.25;;;3.22;;
41253;SDS011;26987;59.928;30.306;2023-11-19T02:47:48;8.70;;;3.03;;
41253;SDS011;26987;59.928;30.306;2023-11-19T02:50:16;9.20;;;2.92;;
41253;SDS011;26987;59.928;30.306;2023-11-19T02:52:51;9.32;;;3.10;;
41253;SDS011;26987;59.928;30.306;2023-11-19T02:55:22;9.48;;;3.03;;
41253;SDS011;26987;59.928;30.306;2023-11-19T02:57:51;8.07;;;3.15;;
41253;SDS011;26987;59.928;30.306;2023-11-19T03:00:21;5.65;;;2.75;;
41253;SDS011;26987;59.928;30.306;2023-11-19T03:02:53;14.52;;;4.07;;
41253;SDS011;26987;59.928;30.306;2023-11-19T03:05:26;7.03;;;3.38;;
41253;SDS011;26987;59.928;30.306;2023-11-19T03:07:56;9.75;;;3.42;;
41253;SDS011;26987;59.928;30.306;2023-11-19T03:10:24;5.93;;;2.97;;
41253;SDS011;26987;59.928;30.306;2023-11-19T03:12:52;14.35;;;3.65;;
41253;SDS011;26987;59.928;30.306;2023-11-19T03:15:22;10.70;;;3.58;;
41253;SDS011;26987;59.928;30.306;2023-11-19T03:17:50;9.88;;;3.75;;
41253;SDS011;26987;59.928;30.306;2023-11-19T03:20:19;12.98;;;3.97;;
41253;SDS011;26987;59.928;30.306;2023-11-19T03:22:48;18.50;;;3.67;;
41253;SDS011;26987;59.928;30.306;2023-11-19T03:25:16;14.57;;;3.90;;
41253;SDS011;26987;59.928;30.306;2023-11-19T03:27:45;15.30;;;4.05;;
41253;SDS011;26987;59.928;30.306;2023-11-19T03:30:13;16.10;;;4.50;;
41253;SDS011;26987;59.928;30.306;2023-11-19T03:32:42;17.95;;;4.47;;
41253;SDS011;26987;59.928;30.306;2023-11-19T03:35:10;12.70;;;3.83;;
41253;SDS011;26987;59.928;30.306;2023-11-19T03:37:38;13.65;;;4.25;;
41253;SDS011;26987;59.928;30.306;2023-11-19T03:40:07;10.32;;;3.50;;
41253;SDS011;26987;59.928;30.306;2023-11-19T03:42:36;9.32;;;2.70;;
41253;SDS011;26987;59.928;30.306;2023-11-19T03:45:06;13.50;;;3.13;;
41253;SDS011;26987;59.928;30.306;2023-11-19T03:47:34;8.27;;;2.35;;
41253;SDS011;26987;59.928;30.306;2023-11-19T03:50:05;11.27;;;3.00;;
41253;SDS011;26987;59.928;30.306;2023-11-19T03:52:35;9.65;;;2.45;;
41253;SDS011;26987;59.928;30.306;2023-11-19T03:55:04;11.05;;;2.50;;
41253;SDS011;26987;59.928;30.306;2023-11-19T03:57:34;9.95;;;2.83;;
41253;SDS011;26987;59.928;30.306;2023-11-19T04:00:02;4.72;;;2.33;;
41253;SDS011;26987;59.928;30.306;2023-11-19T04:02:39;7.72;;;2.92;;
41253;SDS011;26987;59.928;30.306;2023-11-19T04:05:08;12.30;;;2.70;;
41253;SDS011;26987;59.928;30.306;2023-11-19T04:07:37;16.30;;;3.38;;
41253;SDS011;26987;59.928;30.306;2023-11-19T04:10:05;10.50;;;3.13;;
41253;SDS011;26987;59.928;30.306;2023-11-19T04:12:35;8.88;;;3.08;;
41253;SDS011;26987;59.928;30.306;2023-11-19T04:15:03;8.98;;;2.45;;
41253;SDS011;26987;59.928;30.306;2023-11-19T04:17:32;8.30;;;2.95;;
41253;SDS011;26987;59.928;30.306;2023-11-19T04:20:00;8.60;;;3.00;;
41253;SDS011;26987;59.928;30.306;2023-11-19T04:22:31;6.82;;;2.75;;
41253;SDS011;26987;59.928;30.306;2023-11-19T04:24:59;7.15;;;3.10;;
41253;SDS011;26987;59.928;30.306;2023-11-19T04:27:27;8.40;;;2.53;;
41253;SDS011;26987;59.928;30.306;2023-11-19T04:29:56;15.07;;;2.70;;
41253;SDS011;26987;59.928;30.306;2023-11-19T04:32:24;11.73;;;3.15;;
41253;SDS011;26987;59.928;30.306;2023-11-19T04:34:52;10.10;;;3.40;;
41253;SDS011;26987;59.928;30.306;2023-11-19T04:37:20;8.82;;;2.70;;
41253;SDS011;26987;59.928;30.306;2023-11-19T04:39:50;10.50;;;2.40;;
41253;SDS011;26987;59.928;30.306;2023-11-19T04:42:18;13.18;;;2.60;;
41253;SDS011;26987;59.928;30.306;2023-11-19T04:44:46;7.57;;;2.30;;
41253;SDS011;26987;59.928;30.306;2023-11-19T04:47:14;6.65;;;2.45;;
41253;SDS011;26987;59.928;30.306;2023-11-19T04:49:42;6.30;;;2.47;;
41253;SDS011;26987;59.928;30.306;2023-11-19T04:52:10;15.70;;;4.38;;
41253;SDS011;26987;59.928;30.306;2023-11-19T04:54:40;8.18;;;2.78;;
41253;SDS011;26987;59.928;30.306;2023-11-19T04:57:10;25.30;;;2.38;;
41253;SDS011;26987;59.928;30.306;2023-11-19T04:59:38;9.15;;;3.28;;
41253;SDS011;26987;59.928;30.306;2023-11-19T05:02:08;23.40;;;3.45;;
41253;SDS011;26987;59.928;30.306;2023-11-19T05:04:36;10.45;;;2.65;;
41253;SDS011;26987;59.928;30.306;2023-11-19T05:07:04;22.20;;;3.22;;
41253;SDS011;26987;59.928;30.306;2023-11-19T05:09:33;11.52;;;3.15;;
41253;SDS011;26987;59.928;30.306;2023-11-19T05:12:01;10.90;;;3.25;;
41253;SDS011;26987;59.928;30.306;2023-11-19T05:14:30;6.53;;;2.08;;
41253;SDS011;26987;59.928;30.306;2023-11-19T05:16:58;5.82;;;2.92;;
41253;SDS011;26987;59.928;30.306;2023-11-19T05:19:26;19.15;;;3.17;;
41253;SDS011;26987;59.928;30.306;2023-11-19T05:21:54;13.05;;;2.60;;
41253;SDS011;26987;59.928;30.306;2023-11-19T05:24:22;13.27;;;3.38;;
41253;SDS011;26987;59.928;30.306;2023-11-19T05:26:51;11.57;;;2.78;;
41253;SDS011;26987;59.928;30.306;2023-11-19T05:29:19;7.20;;;2.53;;
41253;SDS011;26987;59.928;30.306;2023-11-19T05:31:48;14.98;;;3.03;;
41253;SDS011;26987;59.928;30.306;2023-11-19T05:34:16;11.77;;;2.90;;
41253;SDS011;26987;59.928;30.306;2023-11-19T05:36:47;16.30;;;3.55;;
41253;SDS011;26987;59.928;30.306;2023-11-19T05:39:16;10.13;;;3.20;;
41253;SDS011;26987;59.928;30.306;2023-11-19T05:41:44;10.30;;;3.20;;
41253;SDS011;26987;59.928;30.306;2023-11-19T05:44:12;17.33;;;3.03;;
41253;SDS011;26987;59.928;30.306;2023-11-19T05:46:40;11.55;;;4.80;;
41253;SDS011;26987;59.928;30.306;2023-11-19T05:49:10;15.82;;;3.15;;
41253;SDS011;26987;59.928;30.306;2023-11-19T05:51:39;12.38;;;3.05;;
41253;SDS011;26987;59.928;30.306;2023-11-19T05:54:07;11.05;;;3.60;;
41253;SDS011;26987;59.928;30.306;2023-11-19T05:56:36;21.50;;;3.30;;
41253;SDS011;26987;59.928;30.306;2023-11-19T05:59:04;13.82;;;3.90;;
41253;SDS011;26987;59.928;30.306;2023-11-19T06:01:41;14.30;;;2.58;;
41253;SDS011;26987;59.928;30.306;2023-11-19T06:04:10;11.10;;;2.63;;
41253;SDS011;26987;59.928;30.306;2023-11-19T06:06:38;9.88;;;2.95;;
41253;SDS011;26987;59.928;30.306;2023-11-19T06:09:06;19.27;;;4.53;;
41253;SDS011;26987;59.928;30.306;2023-11-19T06:11:35;19.13;;;4.35;;
41253;SDS011;26987;59.928;30.306;2023-11-19T06:14:04;13.40;;;3.17;;
41253;SDS011;26987;59.928;30.306;2023-11-19T06:16:32;14.07;;;3.47;;
41253;SDS011;26987;59.928;30.306;2023-11-19T06:19:00;20.63;;;3.40;;
41253;SDS011;26987;59.928;30.306;2023-11-19T06:21:29;14.07;;;3.60;;
41253;SDS011;26987;59.928;30.306;2023-11-19T06:23:57;13.93;;;3.97;;
41253;SDS011;26987;59.928;30.306;2023-11-19T06:26:25;20.73;;;5.63;;
41253;SDS011;26987;59.928;30.306;2023-11-19T06:28:54;16.08;;;3.13;;
41253;SDS011;26987;59.928;30.306;2023-11-19T06:31:22;12.60;;;3.60;;
41253;SDS011;26987;59.928;30.306;2023-11-19T06:33:50;14.75;;;4.28;;
41253;SDS011;26987;59.928;30.306;2023-11-19T06:36:18;13.68;;;3.47;;
41253;SDS011;26987;59.928;30.306;2023-11-19T06:38:49;12.15;;;3.35;;
41253;SDS011;26987;59.928;30.306;2023-11-19T06:41:17;17.55;;;3.22;;
41253;SDS011;26987;59.928;30.306;2023-11-19T06:43:45;27.10;;;4.30;;
41253;SDS011;26987;59.928;30.306;2023-11-19T06:46:16;27.17;;;5.90;;
41253;SDS011;26987;59.928;30.306;2023-11-19T06:48:44;14.05;;;3.75;;
41253;SDS011;26987;59.928;30.306;2023-11-19T06:51:12;16.98;;;3.63;;
41253;SDS011;26987;59.928;30.306;2023-11-19T06:53:42;16.67;;;3.00;;
41253;SDS011;26987;59.928;30.306;2023-11-19T06:56:18;13.40;;;4.10;;
41253;SDS011;26987;59.928;30.306;2023-11-19T06:58:47;9.70;;;3.58;;
41253;SDS011;26987;59.928;30.306;2023-11-19T07:01:17;12.90;;;3.83;;
41253;SDS011;26987;59.928;30.306;2023-11-19T07:03:45;11.05;;;2.63;;
41253;SDS011;26987;59.928;30.306;2023-11-19T07:06:13;21.65;;;4.35;;
41253;SDS011;26987;59.928;30.306;2023-11-19T07:08:42;12.52;;;4.07;;
41253;SDS011;26987;59.928;30.306;2023-11-19T07:11:11;14.07;;;4.63;;
41253;SDS011;26987;59.928;30.306;2023-11-19T07:13:41;22.48;;;5.10;;
41253;SDS011;26987;59.928;30.306;2023-11-19T07:16:09;13.90;;;5.43;;
41253;SDS011;26987;59.928;30.306;2023-11-19T07:18:40;19.33;;;5.15;;
41253;SDS011;26987;59.928;30.306;2023-11-19T07:21:08;16.65;;;5.03;;
41253;SDS011;26987;59.928;30.306;2023-11-19T07:24:09;19.08;;;4.25;;
41253;SDS011;26987;59.928;30.306;2023-11-19T07:26:41;16.95;;;4.63;;
41253;SDS011;26987;59.928;30.306;2023-11-19T07:29:12;16.10;;;4.10;;
41253;SDS011;26987;59.928;30.306;2023-11-19T07:31:42;23.45;;;4.90;;
41253;SDS011;26987;59.928;30.306;2023-11-19T07:34:15;19.27;;;5.20;;
41253;SDS011;26987;59.928;30.306;2023-11-19T07:36:43;20.77;;;4.22;;
41253;SDS011;26987;59.928;30.306;2023-11-19T07:39:11;29.88;;;5.32;;
41253;SDS011;26987;59.928;30.306;2023-11-19T07:41:39;26.23;;;5.95;;
41253;SDS011;26987;59.928;30.306;2023-11-19T07:44:08;20.77;;;4.53;;
41253;SDS011;26987;59.928;30.306;2023-11-19T07:46:39;30.58;;;4.55;;
41253;SDS011;26987;59.928;30.306;2023-11-19T07:49:08;19.35;;;4.18;;
41253;SDS011;26987;59.928;30.306;2023-11-19T07:51:36;28.88;;;4.38;;
41253;SDS011;26987;59.928;30.306;2023-11-19T07:54:04;17.20;;;3.97;;
41253;SDS011;26987;59.928;30.306;2023-11-19T07:56:33;36.55;;;4.80;;
41253;SDS011;26987;59.928;30.306;2023-11-19T07:59:01;20.73;;;4.57;;
41253;SDS011;26987;59.928;30.306;2023-11-19T08:01:30;12.88;;;4.88;;
41253;SDS011;26987;59.928;30.306;2023-11-19T08:04:00;18.73;;;4.82;;
41253;SDS011;26987;59.928;30.306;2023-11-19T08:06:29;21.13;;;5.38;;
41253;SDS011;26987;59.928;30.306;2023-11-19T08:08:57;21.85;;;5.35;;
41253;SDS011;26987;59.928;30.306;2023-11-19T08:11:25;14.50;;;4.47;;
41253;SDS011;26987;59.928;30.306;2023-11-19T08:13:53;29.20;;;5.30;;
41253;SDS011;26987;59.928;30.306;2023-11-19T08:16:21;12.77;;;4.07;;
41253;SDS011;26987;59.928;30.306;2023-11-19T08:18:49;10.32;;;3.38;;
41253;SDS011;26987;59.928;30.306;2023-11-19T08:21:19;12.60;;;3.30;;
41253;SDS011;26987;59.928;30.306;2023-11-19T08:23:48;10.70;;;3.13;;
41253;SDS011;26987;59.928;30.306;2023-11-19T08:26:16;12.52;;;3.30;;
41253;SDS011;26987;59.928;30.306;2023-11-19T08:28:45;14.27;;;3.70;;
41253;SDS011;26987;59.928;30.306;2023-11-19T08:31:13;16.67;;;4.13;;
41253;SDS011;26987;59.928;30.306;2023-11-19T08:33:41;28.95;;;4.85;;
41253;SDS011;26987;59.928;30.306;2023-11-19T08:36:15;21.98;;;4.47;;
41253;SDS011;26987;59.928;30.306;2023-11-19T08:38:44;21.73;;;5.13;;
41253;SDS011;26987;59.928;30.306;2023-11-19T08:41:14;14.98;;;3.83;;
41253;SDS011;26987;59.928;30.306;2023-11-19T08:43:44;23.27;;;4.45;;
41253;SDS011;26987;59.928;30.306;2023-11-19T08:46:12;13.00;;;3.83;;
41253;SDS011;26987;59.928;30.306;2023-11-19T08:48:40;22.40;;;3.70;;
41253;SDS011;26987;59.928;30.306;2023-11-19T08:51:08;16.35;;;4.20;;
41253;SDS011;26987;59.928;30.306;2023-11-19T08:53:36;20.25;;;3.80;;
41253;SDS011;26987;59.928;30.306;2023-11-19T08:56:06;13.35;;;3.88;;
41253;SDS011;26987;59.928;30.306;2023-11-19T08:58:34;16.75;;;4.63;;
41253;SDS011;26987;59.928;30.306;2023-11-19T09:01:02;29.88;;;5.30;;
41253;SDS011;26987;59.928;30.306;2023-11-19T09:03:31;21.52;;;4.72;;
41253;SDS011;26987;59.928;30.306;2023-11-19T09:06:00;19.45;;;6.35;;
41253;SDS011;26987;59.928;30.306;2023-11-19T09:08:28;12.02;;;4.57;;
41253;SDS011;26987;59.928;30.306;2023-11-19T09:10:56;26.13;;;6.85;;
41253;SDS011;26987;59.928;30.306;2023-11-19T09:13:25;16.95;;;5.00;;
41253;SDS011;26987;59.928;30.306;2023-11-19T09:15:53;12.93;;;4.78;;
41253;SDS011;26987;59.928;30.306;2023-11-19T09:18:25;20.30;;;4.82;;
41253;SDS011;26987;59.928;30.306;2023-11-19T09:20:53;13.57;;;4.07;;
41253;SDS011;26987;59.928;30.306;2023-11-19T09:23:21;26.80;;;6.85;;
41253;SDS011;26987;59.928;30.306;2023-11-19T09:25:50;16.85;;;4.43;;
41253;SDS011;26987;59.928;30.306;2023-11-19T09:28:18;27.40;;;5.68;;
41253;SDS011;26987;59.928;30.306;2023-11-19T09:30:48;20.48;;;4.38;;
41253;SDS011;26987;59.928;30.306;2023-11-19T09:33:16;21.17;;;4.97;;
41253;SDS011;26987;59.928;30.306;2023-11-19T09:35:44;17.95;;;4.30;;
41253;SDS011;26987;59.928;30.306;2023-11-19T09:38:13;24.65;;;6.28;;
41253;SDS011;26987;59.928;30.306;2023-11-19T09:40:40;20.73;;;4.18;;
41253;SDS011;26987;59.928;30.306;2023-11-19T09:43:09;20.65;;;4.22;;
41253;SDS011;26987;59.928;30.306;2023-11-19T09:45:40;19.75;;;5.47;;
41253;SDS011;26987;59.928;30.306;2023-11-19T09:48:17;18.02;;;4.30;;
41253;SDS011;26987;59.928;30.306;2023-11-19T09:50:46;12.48;;;3.88;;
41253;SDS011;26987;59.928;30.306;2023-11-19T09:53:15;15.43;;;4.30;;
41253;SDS011;26987;59.928;30.306;2023-11-19T09:55:43;16.65;;;4.30;;
41253;SDS011;26987;59.928;30.306;2023-11-19T09:58:12;16.60;;;4.55;;
41253;SDS011;26987;59.928;30.306;2023-11-19T10:00:42;24.15;;;4.10;;
41253;SDS011;26987;59.928;30.306;2023-11-19T10:03:12;13.65;;;3.97;;
41253;SDS011;26987;59.928;30.306;2023-11-19T10:05:40;20.10;;;3.75;;
41253;SDS011;26987;59.928;30.306;2023-11-19T10:08:08;18.65;;;3.50;;
41253;SDS011;26987;59.928;30.306;2023-11-19T10:10:40;11.80;;;3.53;;
41253;SDS011;26987;59.928;30.306;2023-11-19T10:13:08;20.02;;;3.05;;
41253;SDS011;26987;59.928;30.306;2023-11-19T10:15:38;11.88;;;3.28;;
41253;SDS011;26987;59.928;30.306;2023-11-19T10:18:24;23.25;;;3.40;;
41253;SDS011;26987;59.928;30.306;2023-11-19T10:20:54;19.30;;;3.15;;
41253;SDS011;26987;59.928;30.306;2023-11-19T10:23:23;14.10;;;3.05;;
41253;SDS011;26987;59.928;30.306;2023-11-19T10:25:53;15.27;;;3.42;;
41253;SDS011;26987;59.928;30.306;2023-11-19T10:28:22;21.48;;;4.38;;
41253;SDS011;26987;59.928;30.306;2023-11-19T10:30:55;28.27;;;3.97;;
41253;SDS011;26987;59.928;30.306;2023-11-19T10:33:27;18.15;;;4.40;;
41253;SDS011;26987;59.928;30.306;2023-11-19T10:35:58;16.30;;;4.07;;
41253;SDS011;26987;59.928;30.306;2023-11-19T10:38:26;20.92;;;4.40;;
41253;SDS011;26987;59.928;30.306;2023-11-19T10:40:55;31.05;;;6.03;;
41253;SDS011;26987;59.928;30.306;2023-11-19T10:43:24;20.80;;;5.40;;
41253;SDS011;26987;59.928;30.306;2023-11-19T10:45:53;16.42;;;4.20;;
41253;SDS011;26987;59.928;30.306;2023-11-19T10:48:21;27.45;;;5.22;;
41253;SDS011;26987;59.928;30.306;2023-11-19T10:50:53;21.70;;;5.07;;
41253;SDS011;26987;59.928;30.306;2023-11-19T10:53:22;23.27;;;4.65;;
41253;SDS011;26987;59.928;30.306;2023-11-19T10:55:52;29.10;;;3.38;;
41253;SDS011;26987;59.928;30.306;2023-11-19T10:58:26;15.40;;;4.57;;
41253;SDS011;26987;59.928;30.306;2023-11-19T11:00:57;26.92;;;4.80;;
41253;SDS011;26987;59.928;30.306;2023-11-19T11:03:29;23.00;;;3.47;;
41253;SDS011;26987;59.928;30.306;2023-11-19T11:06:04;14.98;;;3.20;;
41253;SDS011;26987;59.928;30.306;2023-11-19T11:08:34;31.02;;;3.20;;
41253;SDS011;26987;59.928;30.306;2023-11-19T11:11:04;16.52;;;4.13;;
41253;SDS011;26987;59.928;30.306;2023-11-19T11:13:36;23.67;;;4.57;;
41253;SDS011;26987;59.928;30.306;2023-11-19T11:16:09;25.17;;;4.63;;
41253;SDS011;26987;59.928;30.306;2023-11-19T11:18:37;18.20;;;4.30;;
41253;SDS011;26987;59.928;30.306;2023-11-19T11:21:08;18.45;;;3.63;;
41253;SDS011;26987;59.928;30.306;2023-11-19T11:23:50;22.40;;;4.80;;
41253;SDS011;26987;59.928;30.306;2023-11-19T11:26:54;15.85;;;4.70;;
41253;SDS011;26987;59.928;30.306;2023-11-19T11:29:36;13.15;;;3.17;;
41253;SDS011;26987;59.928;30.306;2023-11-19T11:32:15;9.60;;;3.17;;
41253;SDS011;26987;59.928;30.306;2023-11-19T11:34:58;16.55;;;4.35;;
41253;SDS011;26987;59.928;30.306;2023-11-19T11:37:44;24.08;;;4.00;;
41253;SDS011;26987;59.928;30.306;2023-11-19T11:40:15;15.90;;;3.90;;
41253;SDS011;26987;59.928;30.306;2023-11-19T11:42:44;11.02;;;3.80;;
41253;SDS011;26987;59.928;30.306;2023-11-19T11:45:13;12.38;;;3.63;;
41253;SDS011;26987;59.928;30.306;2023-11-19T11:50:51;21.17;;;4.50;;
41253;SDS011;26987;59.928;30.306;2023-11-19T11:53:23;9.32;;;3.78;;
41253;SDS011;26987;59.928;30.306;2023-11-19T11:55:53;19.05;;;4.30;;
41253;SDS011;26987;59.928;30.306;2023-11-19T11:58:28;33.60;;;4.22;;
41253;SDS011;26987;59.928;30.306;2023-11-19T12:00:58;26.40;;;4.97;;
41253;SDS011;26987;59.928;30.306;2023-11-19T12:03:28;27.17;;;5.20;;
41253;SDS011;26987;59.928;30.306;2023-11-19T12:05:57;10.30;;;2.80;;
41253;SDS011;26987;59.928;30.306;2023-11-19T12:08:28;14.70;;;3.45;;
41253;SDS011;26987;59.928;30.306;2023-11-19T12:10:57;26.85;;;3.85;;
41253;SDS011;26987;59.928;30.306;2023-11-19T12:16:20;11.23;;;3.50;;
41253;SDS011;26987;59.928;30.306;2023-11-19T12:18:48;18.30;;;3.42;;
41253;SDS011;26987;59.928;30.306;2023-11-19T12:21:27;14.55;;;3.92;;
41253;SDS011;26987;59.928;30.306;2023-11-19T12:23:59;18.08;;;5.10;;
41253;SDS011;26987;59.928;30.306;2023-11-19T12:26:33;22.60;;;4.53;;
41253;SDS011;26987;59.928;30.306;2023-11-19T12:29:02;16.70;;;4.53;;
41253;SDS011;26987;59.928;30.306;2023-11-19T12:31:53;18.70;;;3.97;;
41253;SDS011;26987;59.928;30.306;2023-11-19T12:34:21;21.30;;;3.40;;
41253;SDS011;26987;59.928;30.306;2023-11-19T12:36:49;20.13;;;3.45;;
41253;SDS011;26987;59.928;30.306;2023-11-19T12:39:19;33.08;;;3.75;;
41253;SDS011;26987;59.928;30.306;2023-11-19T12:41:53;15.80;;;4.03;;
41253;SDS011;26987;59.928;30.306;2023-11-19T12:44:21;17.50;;;4.70;;
41253;SDS011;26987;59.928;30.306;2023-11-19T12:47:02;14.38;;;3.88;;
41253;SDS011;26987;59.928;30.306;2023-11-19T12:49:32;19.38;;;3.67;;
41253;SDS011;26987;59.928;30.306;2023-11-19T12:52:00;17.15;;;3.38;;
41253;SDS011;26987;59.928;30.306;2023-11-19T12:54:35;8.02;;;2.60;;
41253;SDS011;26987;59.928;30.306;2023-11-19T12:57:03;6.00;;;2.80;;
41253;SDS011;26987;59.928;30.306;2023-11-19T12:59:32;10.68;;;3.35;;
41253;SDS011;26987;59.928;30.306;2023-11-19T13:02:00;15.27;;;2.97;;
41253;SDS011;26987;59.928;30.306;2023-11-19T13:04:28;13.32;;;3.10;;
41253;SDS011;26987;59.928;30.306;2023-11-19T13:06:57;11.98;;;2.65;;
41253;SDS011;26987;59.928;30.306;2023-11-19T13:09:26;14.88;;;2.90;;
41253;SDS011;26987;59.928;30.306;2023-11-19T13:11:56;14.77;;;2.75;;
41253;SDS011;26987;59.928;30.306;2023-11-19T13:14:35;15.25;;;3.25;;
41253;SDS011;26987;59.928;30.306;2023-11-19T13:17:04;12.20;;;2.50;;
41253;SDS011;26987;59.928;30.306;2023-11-19T13:19:32;15.20;;;3.30;;
41253;SDS011;26987;59.928;30.306;2023-11-19T13:22:00;27.35;;;8.18;;
41253;SDS011;26987;59.928;30.306;2023-11-19T13:24:28;22.30;;;4.80;;
41253;SDS011;26987;59.928;30.306;2023-11-19T13:26:58;12.30;;;3.60;;
41253;SDS011;26987;59.928;30.306;2023-11-19T13:29:28;12.25;;;2.88;;
41253;SDS011;26987;59.928;30.306;2023-11-19T13:31:56;18.98;;;3.10;;
41253;SDS011;26987;59.928;30.306;2023-11-19T13:34:24;13.50;;;2.95;;
41253;SDS011;26987;59.928;30.306;2023-11-19T13:36:52;8.00;;;3.17;;
41253;SDS011;26987;59.928;30.306;2023-11-19T13:39:20;17.35;;;3.60;;
41253;SDS011;26987;59.928;30.306;2023-11-19T13:41:50;7.88;;;3.05;;
41253;SDS011;26987;59.928;30.306;2023-11-19T13:44:19;10.38;;;3.00;;
41253;SDS011;26987;59.928;30.306;2023-11-19T13:46:47;14.35;;;3.28;;
41253;SDS011;26987;59.928;30.306;2023-11-19T13:49:15;8.85;;;3.40;;
41253;SDS011;26987;59.928;30.306;2023-11-19T13:51:45;16.48;;;3.50;;
41253;SDS011;26987;59.928;30.306;2023-11-19T13:54:13;9.30;;;4.00;;
41253;SDS011;26987;59.928;30.306;2023-11-19T13:56:42;14.98;;;3.60;;
41253;SDS011;26987;59.928;30.306;2023-11-19T13:59:11;10.45;;;2.05;;
41253;SDS011;26987;59.928;30.306;2023-11-19T14:01:40;11.07;;;2.88;;
41253;SDS011;26987;59.928;30.306;2023-11-19T14:04:08;10.50;;;2.63;;
41253;SDS011;26987;59.928;30.306;2023-11-19T14:06:36;17.77;;;3.30;;
41253;SDS011;26987;59.928;30.306;2023-11-19T14:09:06;13.68;;;3.65;;
41253;SDS011;26987;59.928;30.306;2023-11-19T14:11:35;13.35;;;2.72;;
41253;SDS011;26987;59.928;30.306;2023-11-19T14:14:03;6.43;;;3.17;;
41253;SDS011;26987;59.928;30.306;2023-11-19T14:16:31;11.00;;;2.90;;
41253;SDS011;26987;59.928;30.306;2023-11-19T14:19:02;18.65;;;3.72;;
41253;SDS011;26987;59.928;30.306;2023-11-19T14:21:30;11.20;;;5.00;;
41253;SDS011;26987;59.928;30.306;2023-11-19T14:23:58;16.88;;;4.72;;
41253;SDS011;26987;59.928;30.306;2023-11-19T14:26:26;9.98;;;4.93;;
41253;SDS011;26987;59.928;30.306;2023-11-19T14:28:54;11.15;;;5.25;;
41253;SDS011;26987;59.928;30.306;2023-11-19T14:31:22;10.75;;;4.65;;
41253;SDS011;26987;59.928;30.306;2023-11-19T14:33:50;9.60;;;3.90;;
41253;SDS011;26987;59.928;30.306;2023-11-19T14:36:20;12.98;;;3.75;;
41253;SDS011;26987;59.928;30.306;2023-11-19T14:38:48;15.18;;;3.88;;
41253;SDS011;26987;59.928;30.306;2023-11-19T14:41:16;8.85;;;3.75;;
41253;SDS011;26987;59.928;30.306;2023-11-19T14:43:44;7.35;;;3.40;;
41253;SDS011;26987;59.928;30.306;2023-11-19T14:46:14;14.00;;;4.10;;